sensor_id;sensor_type;location;lat;lon;timestamp;P1;durP1;ratioP1;P2;durP2;ratioP2
7887;SDS011;3989;48.810;9.208;2024-01-10T14:39:59;418.97;;;109.37;;
7887;SDS011;3989;48.810;9.208;2024-01-10T14:42:26;405.50;;;102.33;;
7887;SDS011;3989;48.810;9.208;2024-01-10T14:44:53;422.60;;;122.60;;
7887;SDS011;3989;48.810;9.208;2024-01-10T14:47:20;422.70;;;121.90;;
7887;SDS011;3989;48.810;9.208;2024-01-10T14:49:48;416.97;;;114.03;;
7887;SDS011;3989;48.810;9.208;2024-01-10T14:52:15;412.77;;;109.07;;
7887;SDS011;3989;48.810;9.208;2024-01-10T14:54:42;397.43;;;90.33;;
7887;SDS011;3989;48.810;9.208;2024-01-10T14:57:10;398.93;;;92.80;;
7887;SDS011;3989;48.810;9.208;2024-01-10T14:59:37;386.80;;;83.07;;
7887;SDS011;3989;48.810;9.208;2024-01-10T15:02:06;393.97;;;87.60;;
7887;SDS011;3989;48.810;9.208;2024-01-10T15:04:38;392.93;;;85.13;;
7887;SDS011;3989;48.810;9.208;2024-01-10T15:07:05;394.37;;;88.43;;
7887;SDS011;3989;48.810;9.208;2024-01-10T15:09:32;392.20;;;85.13;;
7887;SDS011;3989;48.810;9.208;2024-01-10T15:12:02;398.23;;;91.23;;
7887;SDS011;3989;48.810;9.208;2024-01-10T15:14:34;390.57;;;85.97;;
7887;SDS011;3989;48.810;9.208;2024-01-10T15:17:01;395.93;;;88.67;;
7887;SDS011;3989;48.810;9.208;2024-01-10T15:19:31;390.60;;;87.83;;
7887;SDS011;3989;48.810;9.208;2024-01-10T15:21:58;391.63;;;85.87;;
7887;SDS011;3989;48.810;9.208;2024-01-10T15:24:25;400.03;;;88.87;;
7887;SDS011;3989;48.810;9.208;2024-01-10T15:26:52;389.70;;;83.30;;
7887;SDS011;3989;48.810;9.208;2024-01-10T15:29:18;395.17;;;93.07;;
7887;SDS011;3989;48.810;9.208;2024-01-10T15:31:47;400.20;;;93.07;;
7887;SDS011;3989;48.810;9.208;2024-01-10T15:34:14;404.00;;;95.40;;
7887;SDS011;3989;48.810;9.208;2024-01-10T15:36:41;398.67;;;90.13;;
7887;SDS011;3989;48.810;9.208;2024-01-10T15:39:08;397.97;;;95.73;;
7887;SDS011;3989;48.810;9.208;2024-01-10T15:41:37;398.07;;;86.10;;
7887;SDS011;3989;48.810;9.208;2024-01-10T15:44:05;387.77;;;82.00;;
7887;SDS011;3989;48.810;9.208;2024-01-10T15:46:34;388.93;;;82.07;;
7887;SDS011;3989;48.810;9.208;2024-01-10T15:49:03;396.57;;;84.90;;
7887;SDS011;3989;48.810;9.208;2024-01-10T15:51:30;400.07;;;91.87;;
7887;SDS011;3989;48.810;9.208;2024-01-10T15:53:56;390.63;;;85.33;;
7887;SDS011;3989;48.810;9.208;2024-01-10T15:56:24;390.70;;;90.13;;
7887;SDS011;3989;48.810;9.208;2024-01-10T15:58:52;389.50;;;84.63;;
7887;SDS011;3989;48.810;9.208;2024-01-10T16:01:19;389.23;;;85.03;;
7887;SDS011;3989;48.810;9.208;2024-01-10T16:03:46;389.63;;;89.70;;
7887;SDS011;3989;48.810;9.208;2024-01-10T16:06:14;389.17;;;85.43;;
7887;SDS011;3989;48.810;9.208;2024-01-10T16:08:42;395.70;;;85.47;;
7887;SDS011;3989;48.810;9.208;2024-01-10T16:11:09;382.90;;;78.13;;
7887;SDS011;3989;48.810;9.208;2024-01-10T16:13:36;383.40;;;80.47;;
7887;SDS011;3989;48.810;9.208;2024-01-10T16:16:03;382.70;;;81.03;;
7887;SDS011;3989;48.810;9.208;2024-01-10T16:18:34;394.13;;;85.23;;
7887;SDS011;3989;48.810;9.208;2024-01-10T16:21:01;384.53;;;79.30;;
7887;SDS011;3989;48.810;9.208;2024-01-10T16:23:29;383.23;;;78.23;;
7887;SDS011;3989;48.810;9.208;2024-01-10T16:25:56;380.77;;;76.20;;
7887;SDS011;3989;48.810;9.208;2024-01-10T16:28:23;385.23;;;83.23;;
7887;SDS011;3989;48.810;9.208;2024-01-10T16:30:50;381.20;;;77.70;;
7887;SDS011;3989;48.810;9.208;2024-01-10T16:33:18;379.40;;;77.07;;
7887;SDS011;3989;48.810;9.208;2024-01-10T16:35:44;392.47;;;84.00;;
7887;SDS011;3989;48.810;9.208;2024-01-10T16:38:12;385.83;;;83.20;;
7887;SDS011;3989;48.810;9.208;2024-01-10T16:40:40;384.43;;;78.90;;
7887;SDS011;3989;48.810;9.208;2024-01-10T16:43:07;405.35;;;86.35;;
7887;SDS011;3989;48.810;9.208;2024-01-10T16:45:34;390.43;;;82.67;;
7887;SDS011;3989;48.810;9.208;2024-01-10T16:48:01;389.10;;;83.15;;
7887;SDS011;3989;48.810;9.208;2024-01-10T16:50:28;406.77;;;89.30;;
7887;SDS011;3989;48.810;9.208;2024-01-10T16:52:56;390.23;;;84.77;;
7887;SDS011;3989;48.810;9.208;2024-01-10T16:55:23;384.60;;;78.80;;
7887;SDS011;3989;48.810;9.208;2024-01-10T16:57:52;396.53;;;84.20;;
7887;SDS011;3989;48.810;9.208;2024-01-10T17:00:22;390.90;;;84.17;;
7887;SDS011;3989;48.810;9.208;2024-01-10T17:02:49;379.75;;;78.50;;
7887;SDS011;3989;48.810;9.208;2024-01-10T17:05:16;378.30;;;79.23;;
7887;SDS011;3989;48.810;9.208;2024-01-10T17:07:44;378.73;;;78.47;;
7887;SDS011;3989;48.810;9.208;2024-01-10T17:10:10;378.57;;;79.37;;
7887;SDS011;3989;48.810;9.208;2024-01-10T17:12:37;379.88;;;84.00;;
7887;SDS011;3989;48.810;9.208;2024-01-10T17:15:06;367.87;;;72.43;;
7887;SDS011;3989;48.810;9.208;2024-01-10T17:17:34;376.40;;;76.67;;
7887;SDS011;3989;48.810;9.208;2024-01-10T17:20:01;374.52;;;79.57;;
7887;SDS011;3989;48.810;9.208;2024-01-10T17:22:30;389.23;;;85.18;;
7887;SDS011;3989;48.810;9.208;2024-01-10T17:24:57;376.33;;;76.43;;
7887;SDS011;3989;48.810;9.208;2024-01-10T17:27:24;382.15;;;77.75;;
7887;SDS011;3989;48.810;9.208;2024-01-10T17:29:51;376.63;;;78.25;;
7887;SDS011;3989;48.810;9.208;2024-01-10T17:32:19;380.27;;;81.20;;
7887;SDS011;3989;48.810;9.208;2024-01-10T17:34:46;377.83;;;80.15;;
7887;SDS011;3989;48.810;9.208;2024-01-10T17:37:13;378.90;;;79.45;;
7887;SDS011;3989;48.810;9.208;2024-01-10T17:39:40;385.40;;;78.85;;
7887;SDS011;3989;48.810;9.208;2024-01-10T17:42:07;383.15;;;84.35;;
7887;SDS011;3989;48.810;9.208;2024-01-10T17:44:34;388.48;;;83.75;;
7887;SDS011;3989;48.810;9.208;2024-01-10T17:47:02;376.80;;;78.85;;
7887;SDS011;3989;48.810;9.208;2024-01-10T17:49:31;364.90;;;72.78;;
7887;SDS011;3989;48.810;9.208;2024-01-10T17:51:58;377.08;;;78.63;;
7887;SDS011;3989;48.810;9.208;2024-01-10T17:54:25;373.20;;;74.72;;
7887;SDS011;3989;48.810;9.208;2024-01-10T17:56:52;378.83;;;78.50;;
7887;SDS011;3989;48.810;9.208;2024-01-10T17:59:19;370.00;;;74.38;;
7887;SDS011;3989;48.810;9.208;2024-01-10T18:01:46;372.85;;;77.50;;
7887;SDS011;3989;48.810;9.208;2024-01-10T18:04:13;383.25;;;78.50;;
7887;SDS011;3989;48.810;9.208;2024-01-10T18:06:41;381.98;;;78.63;;
7887;SDS011;3989;48.810;9.208;2024-01-10T18:09:08;378.48;;;78.32;;
7887;SDS011;3989;48.810;9.208;2024-01-10T18:11:35;396.90;;;86.32;;
7887;SDS011;3989;48.810;9.208;2024-01-10T18:14:02;387.25;;;81.43;;
7887;SDS011;3989;48.810;9.208;2024-01-10T18:16:29;379.98;;;79.30;;
7887;SDS011;3989;48.810;9.208;2024-01-10T18:18:55;374.23;;;77.47;;
7887;SDS011;3989;48.810;9.208;2024-01-10T18:21:22;375.00;;;76.03;;
7887;SDS011;3989;48.810;9.208;2024-01-10T18:23:51;367.08;;;72.60;;
7887;SDS011;3989;48.810;9.208;2024-01-10T18:26:22;368.73;;;73.97;;
7887;SDS011;3989;48.810;9.208;2024-01-10T18:28:49;374.13;;;76.00;;
7887;SDS011;3989;48.810;9.208;2024-01-10T18:31:16;374.80;;;75.38;;
7887;SDS011;3989;48.810;9.208;2024-01-10T18:33:42;373.33;;;77.32;;
7887;SDS011;3989;48.810;9.208;2024-01-10T18:36:09;374.17;;;76.22;;
7887;SDS011;3989;48.810;9.208;2024-01-10T18:38:36;387.45;;;75.93;;
7887;SDS011;3989;48.810;9.208;2024-01-10T18:41:04;374.15;;;75.38;;
7887;SDS011;3989;48.810;9.208;2024-01-10T18:43:32;384.48;;;82.20;;
7887;SDS011;3989;48.810;9.208;2024-01-10T18:46:01;431.60;;;99.85;;
7887;SDS011;3989;48.810;9.208;2024-01-10T18:48:28;394.77;;;84.70;;
7887;SDS011;3989;48.810;9.208;2024-01-10T18:50:54;373.88;;;78.93;;
7887;SDS011;3989;48.810;9.208;2024-01-10T18:53:21;378.33;;;77.90;;
7887;SDS011;3989;48.810;9.208;2024-01-10T18:55:48;383.77;;;83.25;;
7887;SDS011;3989;48.810;9.208;2024-01-10T18:58:16;378.38;;;80.90;;
7887;SDS011;3989;48.810;9.208;2024-01-10T19:00:44;382.17;;;78.47;;
7887;SDS011;3989;48.810;9.208;2024-01-10T19:03:11;386.20;;;82.15;;
7887;SDS011;3989;48.810;9.208;2024-01-10T19:05:37;376.08;;;79.28;;
7887;SDS011;3989;48.810;9.208;2024-01-10T19:08:08;374.83;;;78.97;;
7887;SDS011;3989;48.810;9.208;2024-01-10T19:10:35;385.98;;;82.43;;
7887;SDS011;3989;48.810;9.208;2024-01-10T19:13:02;366.13;;;74.97;;
7887;SDS011;3989;48.810;9.208;2024-01-10T19:15:30;379.45;;;81.65;;
7887;SDS011;3989;48.810;9.208;2024-01-10T19:17:58;375.90;;;81.03;;
7887;SDS011;3989;48.810;9.208;2024-01-10T19:20:24;372.17;;;78.88;;
7887;SDS011;3989;48.810;9.208;2024-01-10T19:22:51;369.77;;;73.72;;
7887;SDS011;3989;48.810;9.208;2024-01-10T19:25:18;375.17;;;74.55;;
7887;SDS011;3989;48.810;9.208;2024-01-10T19:27:45;358.17;;;72.30;;
7887;SDS011;3989;48.810;9.208;2024-01-10T19:30:12;371.30;;;76.80;;
7887;SDS011;3989;48.810;9.208;2024-01-10T19:32:47;371.77;;;77.95;;
7887;SDS011;3989;48.810;9.208;2024-01-10T19:35:14;370.63;;;76.63;;
7887;SDS011;3989;48.810;9.208;2024-01-10T19:37:40;365.05;;;75.35;;
7887;SDS011;3989;48.810;9.208;2024-01-10T19:40:07;379.67;;;78.43;;
7887;SDS011;3989;48.810;9.208;2024-01-10T19:42:35;372.05;;;81.28;;
7887;SDS011;3989;48.810;9.208;2024-01-10T19:45:02;363.95;;;70.45;;
7887;SDS011;3989;48.810;9.208;2024-01-10T19:47:30;362.35;;;75.10;;
7887;SDS011;3989;48.810;9.208;2024-01-10T19:49:58;372.25;;;75.85;;
7887;SDS011;3989;48.810;9.208;2024-01-10T19:52:25;370.40;;;81.80;;
7887;SDS011;3989;48.810;9.208;2024-01-10T19:54:52;370.02;;;77.72;;
7887;SDS011;3989;48.810;9.208;2024-01-10T19:57:19;372.10;;;78.15;;
7887;SDS011;3989;48.810;9.208;2024-01-10T19:59:46;369.60;;;77.20;;
7887;SDS011;3989;48.810;9.208;2024-01-10T20:02:13;363.15;;;74.35;;
7887;SDS011;3989;48.810;9.208;2024-01-10T20:04:43;364.17;;;71.22;;
7887;SDS011;3989;48.810;9.208;2024-01-10T20:07:12;366.50;;;75.35;;
7887;SDS011;3989;48.810;9.208;2024-01-10T20:09:39;369.38;;;75.30;;
7887;SDS011;3989;48.810;9.208;2024-01-10T20:12:06;364.80;;;72.57;;
7887;SDS011;3989;48.810;9.208;2024-01-10T20:14:33;375.17;;;82.85;;
7887;SDS011;3989;48.810;9.208;2024-01-10T20:16:59;369.17;;;80.22;;
7887;SDS011;3989;48.810;9.208;2024-01-10T20:19:26;376.02;;;76.68;;
7887;SDS011;3989;48.810;9.208;2024-01-10T20:21:53;365.00;;;77.28;;
7887;SDS011;3989;48.810;9.208;2024-01-10T20:24:21;364.40;;;72.30;;
7887;SDS011;3989;48.810;9.208;2024-01-10T20:26:47;356.70;;;69.75;;
7887;SDS011;3989;48.810;9.208;2024-01-10T20:29:14;364.75;;;76.15;;
7887;SDS011;3989;48.810;9.208;2024-01-10T20:31:41;364.17;;;75.75;;
7887;SDS011;3989;48.810;9.208;2024-01-10T20:34:07;367.58;;;75.25;;
7887;SDS011;3989;48.810;9.208;2024-01-10T20:36:34;365.25;;;76.68;;
7887;SDS011;3989;48.810;9.208;2024-01-10T20:39:01;366.65;;;77.28;;
7887;SDS011;3989;48.810;9.208;2024-01-10T20:41:30;359.00;;;74.00;;
7887;SDS011;3989;48.810;9.208;2024-01-10T20:43:57;357.85;;;73.03;;
7887;SDS011;3989;48.810;9.208;2024-01-10T20:46:24;367.90;;;75.20;;
7887;SDS011;3989;48.810;9.208;2024-01-10T20:48:51;366.25;;;76.85;;
7887;SDS011;3989;48.810;9.208;2024-01-10T20:51:19;356.13;;;71.63;;
7887;SDS011;3989;48.810;9.208;2024-01-10T20:53:46;350.83;;;69.13;;
7887;SDS011;3989;48.810;9.208;2024-01-10T20:56:13;363.23;;;76.13;;
7887;SDS011;3989;48.810;9.208;2024-01-10T20:58:41;354.52;;;73.15;;
7887;SDS011;3989;48.810;9.208;2024-01-10T21:01:08;352.38;;;70.45;;
7887;SDS011;3989;48.810;9.208;2024-01-10T21:03:36;339.15;;;61.53;;
7887;SDS011;3989;48.810;9.208;2024-01-10T21:06:03;344.35;;;64.30;;
7887;SDS011;3989;48.810;9.208;2024-01-10T21:08:30;343.05;;;73.57;;
7887;SDS011;3989;48.810;9.208;2024-01-10T21:10:56;354.05;;;68.70;;
7887;SDS011;3989;48.810;9.208;2024-01-10T21:13:25;365.77;;;76.53;;
7887;SDS011;3989;48.810;9.208;2024-01-10T21:15:53;361.95;;;72.38;;
7887;SDS011;3989;48.810;9.208;2024-01-10T21:18:20;364.73;;;74.40;;
7887;SDS011;3989;48.810;9.208;2024-01-10T21:20:46;366.70;;;74.97;;
7887;SDS011;3989;48.810;9.208;2024-01-10T21:23:15;360.92;;;95.90;;
7887;SDS011;3989;48.810;9.208;2024-01-10T21:25:41;356.80;;;91.38;;
7887;SDS011;3989;48.810;9.208;2024-01-10T21:28:08;370.90;;;81.97;;
7887;SDS011;3989;48.810;9.208;2024-01-10T21:30:35;360.48;;;77.00;;
